MHLC/LCE METAR and TAF weather

Enter ICAO airport designator
Station Type Date Time Source
MHLC METAR 2020/11/27 03:00 UTC NOAA

MHLC 270300Z VRB02KT 9999 SCT026 BKN070 24/22 Q1014 A2995 NOSIG


Station Type Date Time Source
MHLC Decoded METAR 2020/11/27 03:00 UTC NOAA

La Ceiba Airport , Honduras (MHLC) 15-44N 086-52W 26M
Nov 26, 2020 - 10:00 PM EST / 2020.11.27 0300 UTC
Wind: Variable at 2 MPH (2 KT):0
Visibility: greater than 7 mile(s):0
Sky conditions: mostly cloudy
Temperature: 75 F (24 C)
Dew Point: 71 F (22 C)
Relative Humidity: 88%
Pressure (altimeter): 29.95 in. Hg (1014 hPa)
ob: MHLC 270300Z VRB02KT 9999 SCT026 BKN070 24/22 Q1014 A2995 NOSIG
cycle: 3

Station Type Date Time Source
MHLC TAF 2020/11/26 18:34 UTC NOAA

TAF MHLC 261625Z 2618/2718 00000KT 5000 VCSH SCT025CB TX28/2621Z TN21/2712Z
BECMG 2620/2622 07012KT 9999 NSW SCT025
BECMG 2710/2712 20004KT BKN020
BECMG 2714/2716 SCT020

Example: see airport list